Time;durP1;ratioP1;P1;durP2;ratioP2;P2;SDS_P1;SDS_P2;PMS_P1;PMS_P2;Temp;Humidity;BMP_temperature;BMP_pressure;BME280_temperature;BME280_humidity;BME280_pressure;Samples;Min_cycle;Max_cycle;Signal;HPM_P1;HPM_P2
2021/09/14 00:00:46;;;;;;;6.55;3.33;;;12.20;99.90;;;;;;4988800;28;20113;-67
2021/09/14 00:03:11;;;;;;;3.47;2.60;;;12.20;99.90;;;;;;4990826;28;20041;-67
2021/09/14 00:05:37;;;;;;;3.83;2.80;;;12.10;99.90;;;;;;4986296;28;20042;-67
2021/09/14 00:08:02;;;;;;;4.15;3.25;;;12.00;99.90;;;;;;4990319;28;20030;-67
2021/09/14 00:10:28;;;;;;;4.15;2.85;;;12.00;99.90;;;;;;4990057;28;20049;-66
2021/09/14 00:12:53;;;;;;;5.00;3.00;;;12.00;99.90;;;;;;4990175;28;20030;-66
2021/09/14 00:15:19;;;;;;;6.07;3.13;;;12.00;99.90;;;;;;4988747;28;20498;-67
2021/09/14 00:17:45;;;;;;;4.50;3.05;;;12.10;99.90;;;;;;4993385;28;20018;-66
2021/09/14 00:20:10;;;;;;;3.80;2.75;;;12.10;99.90;;;;;;4990204;28;20045;-67
2021/09/14 00:22:36;;;;;;;4.00;2.40;;;12.20;99.90;;;;;;4988494;28;20030;-67
2021/09/14 00:25:02;;;;;;;3.83;2.72;;;12.20;99.90;;;;;;4987627;28;20034;-67
2021/09/14 00:27:27;;;;;;;3.30;2.50;;;12.20;99.90;;;;;;4991062;28;20025;-67
2021/09/14 00:29:52;;;;;;;6.45;2.63;;;12.40;99.90;;;;;;4988252;28;20057;-67
2021/09/14 00:32:18;;;;;;;8.68;2.72;;;12.30;99.90;;;;;;4987075;28;20041;-67
2021/09/14 00:34:44;;;;;;;7.05;2.92;;;12.30;99.90;;;;;;4972907;28;20732;-67
2021/09/14 00:37:09;;;;;;;5.10;2.45;;;12.30;99.90;;;;;;4987858;28;20517;-66
2021/09/14 00:39:35;;;;;;;6.55;2.80;;;12.20;99.90;;;;;;4989511;28;20488;-67
2021/09/14 00:42:00;;;;;;;4.57;2.70;;;12.30;99.90;;;;;;4987843;28;20046;-67
2021/09/14 00:44:26;;;;;;;3.67;2.72;;;12.30;99.90;;;;;;4989375;28;20137;-67
2021/09/14 00:46:52;;;;;;;6.00;3.15;;;12.30;99.90;;;;;;4986500;28;20039;-67
2021/09/14 00:49:17;;;;;;;3.83;2.75;;;12.20;99.90;;;;;;4989250;28;20030;-67
2021/09/14 00:51:43;;;;;;;6.32;2.92;;;12.20;99.90;;;;;;4990348;28;20768;-66
2021/09/14 00:54:08;;;;;;;8.68;3.30;;;12.20;99.90;;;;;;4989116;28;20038;-67
2021/09/14 00:56:34;;;;;;;6.32;3.13;;;12.20;99.90;;;;;;4992053;28;20040;-67
2021/09/14 00:58:59;;;;;;;7.82;2.88;;;12.10;99.90;;;;;;4988245;28;20037;-67
2021/09/14 01:01:25;;;;;;;6.82;3.35;;;12.10;99.90;;;;;;4972599;28;20081;-67
2021/09/14 01:03:50;;;;;;;6.65;3.58;;;12.10;99.90;;;;;;4987542;28;20508;-66
2021/09/14 01:06:16;;;;;;;5.63;3.72;;;12.20;99.90;;;;;;4989537;28;20042;-66
2021/09/14 01:08:41;;;;;;;9.60;4.40;;;12.20;99.90;;;;;;4988813;28;20060;-67
2021/09/14 01:11:07;;;;;;;8.52;4.85;;;12.30;99.90;;;;;;4987668;28;20492;-67
2021/09/14 01:13:33;;;;;;;11.00;4.72;;;12.40;99.90;;;;;;4992343;28;20057;-67
2021/09/14 01:15:58;;;;;;;8.38;5.07;;;12.50;99.90;;;;;;4989681;28;20041;-67
2021/09/14 01:18:24;;;;;;;5.82;4.25;;;12.50;99.90;;;;;;4989765;28;20033;-67
2021/09/14 01:20:49;;;;;;;8.25;3.63;;;12.50;99.90;;;;;;4989503;28;20688;-66
2021/09/14 01:23:15;;;;;;;7.72;4.18;;;12.40;99.90;;;;;;4991342;28;20032;-66
2021/09/14 01:25:42;;;;;;;9.13;3.72;;;12.40;99.90;;;;;;4987520;28;20038;-66
2021/09/14 01:28:08;;;;;;;7.75;4.18;;;12.30;99.90;;;;;;4988687;28;20568;-67
2021/09/14 01:30:37;;;;;;;7.72;4.28;;;12.30;99.90;;;;;;4988307;28;20129;-66
2021/09/14 01:33:05;;;;;;;10.35;4.88;;;12.30;99.90;;;;;;4986043;28;20022;-66
2021/09/14 01:35:36;;;;;;;7.45;4.85;;;12.70;99.90;;;;;;4989324;28;20901;-66
2021/09/14 01:38:05;;;;;;;9.65;4.57;;;12.50;99.90;;;;;;4986498;28;20041;-66
2021/09/14 01:40:35;;;;;;;9.30;4.80;;;12.50;99.90;;;;;;4969561;28;20038;-66
2021/09/14 01:43:09;;;;;;;8.03;4.73;;;12.50;99.90;;;;;;4985885;28;20537;-67
2021/09/14 01:45:35;;;;;;;8.32;5.20;;;12.40;99.90;;;;;;4986074;28;20082;-66
2021/09/14 01:48:05;;;;;;;12.93;5.25;;;12.40;99.90;;;;;;4988140;28;20031;-66
2021/09/14 01:50:31;;;;;;;9.07;5.35;;;12.40;99.90;;;;;;4974219;28;20045;-66
2021/09/14 01:53:00;;;;;;;12.20;5.55;;;12.40;99.90;;;;;;4988533;28;20025;-66
2021/09/14 01:55:28;;;;;;;9.15;5.68;;;12.40;99.90;;;;;;4994452;28;20021;-66
2021/09/14 01:57:55;;;;;;;8.45;5.18;;;12.40;99.90;;;;;;4971089;28;20045;-66
2021/09/14 02:00:24;;;;;;;14.50;5.05;;;12.40;99.90;;;;;;4990359;28;20838;-66
2021/09/14 02:29:58;;;;;;;8.32;4.97;;;12.50;99.90;;;;;;4995408;28;20128;-66
2021/09/14 02:59:23;;;;;;;8.10;4.68;;;12.10;99.90;;;;;;4988526;28;20030;-67
2021/09/14 03:01:49;;;;;;;10.45;4.93;;;12.00;99.90;;;;;;4973076;28;20040;-66
2021/09/14 03:04:16;;;;;;;8.43;4.53;;;12.00;99.90;;;;;;4989493;28;20062;-67
2021/09/14 03:06:43;;;;;;;10.52;4.85;;;12.00;99.90;;;;;;4991765;28;20038;-66
2021/09/14 03:09:20;;;;;;;10.18;5.28;;;12.00;99.90;;;;;;4990434;28;20034;-67
2021/09/14 03:11:46;;;;;;;11.00;5.70;;;12.00;99.90;;;;;;4988637;28;20450;-66
2021/09/14 03:14:12;;;;;;;9.30;5.10;;;12.00;99.90;;;;;;4988746;28;20062;-67
2021/09/14 03:16:38;;;;;;;10.25;5.10;;;11.90;99.90;;;;;;4991033;28;20125;-67
2021/09/14 03:19:04;;;;;;;9.82;5.28;;;11.90;99.90;;;;;;4986764;28;20661;-66
2021/09/14 03:21:29;;;;;;;13.32;5.20;;;11.90;99.90;;;;;;4989657;28;20030;-66
2021/09/14 03:23:55;;;;;;;11.02;5.32;;;11.90;99.90;;;;;;4971416;28;20025;-67
2021/09/14 03:26:20;;;;;;;10.25;5.07;;;11.80;99.90;;;;;;4992067;28;20072;-67
2021/09/14 03:28:46;;;;;;;12.80;5.53;;;11.80;99.90;;;;;;4990369;28;20034;-67
2021/09/14 03:31:15;;;;;;;7.63;4.50;;;11.80;99.90;;;;;;4987368;28;20037;-66
2021/09/14 03:33:40;;;;;;;11.10;5.00;;;11.70;99.90;;;;;;4988731;28;20077;-66
2021/09/14 03:36:07;;;;;;;7.60;4.78;;;11.70;99.90;;;;;;4972980;28;20033;-66
2021/09/14 03:38:33;;;;;;;10.50;4.93;;;11.60;99.90;;;;;;4987732;28;20048;-66
2021/09/14 03:40:58;;;;;;;9.95;4.25;;;11.60;99.90;;;;;;4994306;28;20034;-66
2021/09/14 03:43:24;;;;;;;11.32;5.05;;;11.40;99.90;;;;;;4990513;28;20034;-66
2021/09/14 03:45:50;;;;;;;10.32;5.28;;;11.50;99.90;;;;;;4991088;28;20030;-66
2021/09/14 03:48:20;;;;;;;10.07;5.13;;;11.50;99.90;;;;;;4995468;28;20041;-66
2021/09/14 03:50:49;;;;;;;7.32;4.38;;;11.40;99.90;;;;;;4990824;28;20124;-66
2021/09/14 03:53:16;;;;;;;8.48;4.63;;;11.30;99.90;;;;;;4990435;28;20033;-66
2021/09/14 03:55:41;;;;;;;11.07;5.10;;;11.30;99.90;;;;;;4994134;28;20022;-66
2021/09/14 03:58:07;;;;;;;10.30;5.05;;;11.30;99.90;;;;;;4990521;28;20397;-66
2021/09/14 04:00:33;;;;;;;8.43;4.60;;;11.20;99.90;;;;;;4997106;28;20736;-66
2021/09/14 04:03:19;;;;;;;8.35;5.03;;;11.20;99.90;;;;;;4989020;28;20056;-66
2021/09/14 04:10:39;;;;;;;10.85;5.53;;;11.10;99.90;;;;;;4989326;28;20042;-66
2021/09/14 04:13:05;;;;;;;8.63;5.10;;;11.10;99.90;;;;;;4988133;28;20038;-66
2021/09/14 04:15:31;;;;;;;14.75;5.55;;;11.10;99.90;;;;;;4989337;28;20045;-66
2021/09/14 04:17:58;;;;;;;10.75;5.30;;;11.10;99.90;;;;;;4990254;28;20037;-66
2021/09/14 04:20:24;;;;;;;12.63;5.40;;;11.10;99.90;;;;;;4990618;28;20030;-66
2021/09/14 04:22:51;;;;;;;9.93;5.00;;;11.00;99.90;;;;;;4989470;28;20126;-66
2021/09/14 04:25:16;;;;;;;11.60;5.93;;;11.00;99.90;;;;;;4986177;28;20117;-67
2021/09/14 04:27:42;;;;;;;8.05;5.15;;;11.00;99.90;;;;;;4991835;28;20069;-66
2021/09/14 04:30:09;;;;;;;11.52;5.65;;;11.00;99.90;;;;;;4991802;28;20034;-66
2021/09/14 04:32:35;;;;;;;9.57;5.20;;;11.00;99.90;;;;;;4986491;28;20820;-66
2021/09/14 04:35:00;;;;;;;8.32;5.07;;;11.00;99.90;;;;;;4992773;28;20034;-66
2021/09/14 04:37:26;;;;;;;12.38;5.55;;;11.00;99.90;;;;;;4989376;28;20496;-66
2021/09/14 04:39:53;;;;;;;12.45;4.93;;;11.00;99.90;;;;;;4987734;28;20030;-67
2021/09/14 04:42:18;;;;;;;6.78;4.50;;;10.90;99.90;;;;;;4989197;28;20045;-67
2021/09/14 04:44:44;;;;;;;6.88;4.20;;;10.90;99.90;;;;;;4988303;28;20545;-67
2021/09/14 04:47:09;;;;;;;7.97;4.35;;;10.90;99.90;;;;;;4990544;28;20049;-66
2021/09/14 04:49:35;;;;;;;9.02;4.30;;;10.90;99.90;;;;;;4993195;28;20037;-66
2021/09/14 04:52:06;;;;;;;6.43;4.38;;;10.90;99.90;;;;;;4988848;28;20038;-66
2021/09/14 04:54:31;;;;;;;6.65;4.28;;;10.90;99.90;;;;;;4991187;28;20482;-66
2021/09/14 04:56:57;;;;;;;8.52;4.10;;;10.90;99.90;;;;;;4992203;28;20033;-66
2021/09/14 04:59:23;;;;;;;7.75;4.25;;;10.90;99.90;;;;;;4990615;28;20026;-66
2021/09/14 05:01:48;;;;;;;6.07;3.90;;;10.80;99.90;;;;;;4995618;28;20034;-66
2021/09/14 05:04:15;;;;;;;8.80;4.10;;;10.80;99.90;;;;;;4994057;28;20030;-66
2021/09/14 05:06:40;;;;;;;6.43;4.00;;;10.80;99.90;;;;;;4992148;28;20035;-66
2021/09/14 05:09:06;;;;;;;8.10;4.40;;;10.80;99.90;;;;;;4990096;28;20045;-67
2021/09/14 05:11:38;;;;;;;7.05;4.18;;;10.80;99.90;;;;;;4989554;28;20029;-66
2021/09/14 05:14:04;;;;;;;8.07;4.15;;;10.80;99.90;;;;;;4978024;28;20088;-66
2021/09/14 05:16:39;;;;;;;7.10;4.20;;;10.80;99.90;;;;;;4994463;28;20683;-66
2021/09/14 05:19:33;;;;;;;7.75;4.10;;;10.80;99.90;;;;;;4989402;28;20191;-66
2021/09/14 05:21:59;;;;;;;9.98;4.15;;;10.80;99.90;;;;;;4994653;28;20070;-66
2021/09/14 05:24:25;;;;;;;5.80;3.42;;;10.80;99.90;;;;;;4995436;28;20033;-67
2021/09/14 05:26:50;;;;;;;7.35;3.33;;;10.80;99.90;;;;;;5000924;28;20037;-66
2021/09/14 05:29:16;;;;;;;5.65;3.70;;;10.80;99.90;;;;;;4994930;28;20497;-67
2021/09/14 05:31:42;;;;;;;5.88;4.13;;;10.80;99.90;;;;;;4997121;28;20105;-66
2021/09/14 05:34:07;;;;;;;12.68;4.70;;;10.90;99.90;;;;;;4993270;28;20026;-67
2021/09/14 05:36:33;;;;;;;7.15;3.75;;;10.90;99.90;;;;;;4996004;28;20061;-66
2021/09/14 05:38:58;;;;;;;13.55;4.80;;;11.00;99.90;;;;;;4997141;28;20395;-66
2021/09/14 05:41:24;;;;;;;6.85;3.92;;;11.10;99.90;;;;;;4992312;28;20025;-66
2021/09/14 05:43:49;;;;;;;6.60;3.90;;;11.10;99.90;;;;;;4998379;28;20561;-66
2021/09/14 05:46:15;;;;;;;11.70;4.45;;;11.20;99.90;;;;;;4990444;28;20037;-63
2021/09/14 05:48:41;;;;;;;11.65;4.82;;;11.20;99.90;;;;;;4989963;28;20042;-63
2021/09/14 05:51:07;;;;;;;15.05;6.55;;;11.30;99.90;;;;;;4986176;28;20478;-63
2021/09/14 05:53:55;;;;;;;10.75;5.35;;;11.00;99.90;;;;;;4992864;28;20026;-63
2021/09/14 05:56:21;;;;;;;11.50;5.38;;;11.50;99.90;;;;;;4994819;28;20536;-63
2021/09/14 05:58:47;;;;;;;14.38;6.07;;;11.60;99.90;;;;;;4994333;28;20026;-63
2021/09/14 06:01:14;;;;;;;10.90;5.95;;;11.70;99.90;;;;;;4994124;28;20728;-63
2021/09/14 06:03:40;;;;;;;10.35;5.43;;;11.80;99.90;;;;;;4985786;28;20041;-63
2021/09/14 06:06:05;;;;;;;10.98;5.43;;;11.80;99.90;;;;;;4990993;28;20037;-64
2021/09/14 06:08:32;;;;;;;8.82;5.05;;;11.90;99.90;;;;;;4998812;28;20133;-64
2021/09/14 06:10:58;;;;;;;11.48;5.88;;;12.00;99.90;;;;;;4997452;28;20131;-63
2021/09/14 06:13:23;;;;;;;15.35;6.47;;;12.00;99.90;;;;;;4976834;28;20033;-64
2021/09/14 06:15:50;;;;;;;12.98;7.10;;;12.10;99.90;;;;;;4992983;28;20107;-64
2021/09/14 06:18:21;;;;;;;19.83;7.07;;;12.20;99.90;;;;;;4992873;28;20041;-63
2021/09/14 06:20:47;;;;;;;16.98;7.57;;;12.30;99.90;;;;;;4993224;28;20034;-64
2021/09/14 06:23:13;;;;;;;15.68;7.72;;;12.50;99.90;;;;;;4986955;28;20030;-64
2021/09/14 06:25:39;;;;;;;14.73;7.30;;;12.60;99.90;;;;;;4996481;28;20041;-64
2021/09/14 06:28:05;;;;;;;17.05;7.40;;;12.80;99.90;;;;;;4998540;28;20026;-63
2021/09/14 06:30:31;;;;;;;15.90;7.85;;;12.90;99.90;;;;;;4994440;28;20490;-63
2021/09/14 06:32:57;;;;;;;12.68;6.55;;;13.00;99.90;;;;;;4996070;28;20033;-63
2021/09/14 06:35:22;;;;;;;12.70;6.10;;;13.10;99.90;;;;;;4988897;28;20394;-63
2021/09/14 06:37:49;;;;;;;14.20;6.18;;;13.20;99.90;;;;;;4975088;28;20505;-63
2021/09/14 06:40:15;;;;;;;12.30;6.05;;;13.40;99.90;;;;;;4996713;28;20037;-65
2021/09/14 06:42:44;;;;;;;11.63;5.82;;;13.50;99.90;;;;;;4980098;28;20026;-63
2021/09/14 06:45:46;;;;;;;12.48;6.53;;;13.70;99.90;;;;;;4994468;28;20061;-63
2021/09/14 06:48:37;;;;;;;16.35;7.38;;;13.80;99.90;;;;;;4996898;28;20090;-64
2021/09/14 06:51:03;;;;;;;11.18;5.25;;;14.00;99.90;;;;;;4991184;28;20490;-66
2021/09/14 06:53:29;;;;;;;6.53;4.47;;;14.10;99.90;;;;;;4991960;28;20064;-66
2021/09/14 06:55:55;;;;;;;12.85;7.43;;;14.20;99.90;;;;;;4993109;28;20030;-66
2021/09/14 06:58:25;;;;;;;27.77;12.43;;;14.30;99.90;;;;;;4976101;28;20030;-66
2021/09/14 07:00:51;;;;;;;19.48;9.43;;;14.40;99.90;;;;;;4992884;28;20197;-66
2021/09/14 07:03:17;;;;;;;12.48;5.00;;;14.50;99.90;;;;;;4990493;28;20042;-66
2021/09/14 07:05:42;;;;;;;12.68;6.90;;;14.60;99.90;;;;;;4990465;28;20100;-66
2021/09/14 07:08:07;;;;;;;8.63;4.78;;;14.70;99.90;;;;;;4995676;28;20073;-66
2021/09/14 07:10:33;;;;;;;10.43;4.35;;;14.80;99.90;;;;;;4997044;28;20038;-66
2021/09/14 07:12:59;;;;;;;8.00;4.22;;;14.90;99.90;;;;;;4993164;28;20065;-66
2021/09/14 07:15:24;;;;;;;9.43;4.40;;;15.10;99.90;;;;;;4994847;28;20065;-65
2021/09/14 07:17:50;;;;;;;14.55;4.45;;;15.20;99.90;;;;;;4990704;28;20030;-66
2021/09/14 07:20:15;;;;;;;12.70;4.63;;;15.30;99.90;;;;;;4995634;28;20680;-66
2021/09/14 07:22:41;;;;;;;6.63;3.85;;;15.40;99.90;;;;;;4994670;28;20046;-66
2021/09/14 07:25:06;;;;;;;7.13;4.28;;;15.50;99.90;;;;;;4990636;28;20034;-66
2021/09/14 07:27:32;;;;;;;11.32;3.70;;;15.60;99.90;;;;;;4994390;28;20034;-66
2021/09/14 07:29:57;;;;;;;11.50;3.70;;;15.80;99.90;;;;;;4990690;28;20121;-66
2021/09/14 07:32:23;;;;;;;8.05;3.38;;;16.00;99.90;;;;;;4992114;28;20030;-66
2021/09/14 07:34:48;;;;;;;6.90;3.15;;;16.10;99.90;;;;;;4990882;28;20509;-65
2021/09/14 07:37:14;;;;;;;7.95;3.33;;;16.10;99.90;;;;;;4990765;28;20029;-66
2021/09/14 07:39:39;;;;;;;8.98;3.53;;;16.30;99.90;;;;;;4991205;28;20046;-66
2021/09/14 07:42:05;;;;;;;5.90;3.35;;;16.40;99.90;;;;;;4991616;28;20100;-66
2021/09/14 07:44:30;;;;;;;7.53;3.05;;;16.50;99.90;;;;;;4989665;28;20113;-66
2021/09/14 07:46:56;;;;;;;6.70;3.22;;;16.70;99.90;;;;;;4989159;28;20422;-67
2021/09/14 07:49:21;;;;;;;7.63;2.92;;;17.00;99.90;;;;;;4989203;28;20789;-66
2021/09/14 07:51:47;;;;;;;9.43;3.22;;;17.20;99.90;;;;;;4991620;28;20211;-66
2021/09/14 07:54:12;;;;;;;9.05;3.63;;;17.20;99.90;;;;;;4989081;28;20043;-66
2021/09/14 07:56:37;;;;;;;10.95;3.00;;;17.40;99.90;;;;;;4996571;28;20073;-66
2021/09/14 07:59:03;;;;;;;9.43;3.05;;;17.50;99.90;;;;;;4997702;28;20581;-66
2021/09/14 08:01:29;;;;;;;5.80;2.95;;;17.60;99.90;;;;;;4987730;28;20049;-65
2021/09/14 08:03:54;;;;;;;10.02;5.57;;;17.80;99.90;;;;;;4993058;28;20877;-66
2021/09/14 08:06:20;;;;;;;6.30;3.50;;;17.90;99.90;;;;;;4991690;28;20145;-66
2021/09/14 08:08:45;;;;;;;11.20;5.05;;;17.90;99.90;;;;;;4988277;28;20040;-65
2021/09/14 08:11:11;;;;;;;7.47;4.40;;;18.30;99.90;;;;;;4994674;28;20817;-65
2021/09/14 08:13:36;;;;;;;8.77;3.78;;;18.50;99.90;;;;;;4991706;28;20061;-66
2021/09/14 08:16:02;;;;;;;8.27;4.43;;;18.40;99.90;;;;;;4989006;28;20033;-66
2021/09/14 08:18:27;;;;;;;6.53;2.50;;;18.70;99.90;;;;;;4988679;28;20446;-66
2021/09/14 08:20:53;;;;;;;8.40;3.10;;;18.50;99.90;;;;;;4992343;28;20063;-66
2021/09/14 08:23:18;;;;;;;8.82;3.13;;;18.40;99.90;;;;;;4992548;28;20088;-65
2021/09/14 08:25:44;;;;;;;6.13;2.75;;;18.50;99.90;;;;;;4991653;28;20881;-66
2021/09/14 08:28:09;;;;;;;7.63;2.50;;;18.60;99.90;;;;;;4995194;28;20034;-66
2021/09/14 08:30:35;;;;;;;11.93;3.20;;;18.70;99.90;;;;;;4989869;28;20030;-65
2021/09/14 08:33:01;;;;;;;7.95;3.35;;;19.00;99.90;;;;;;4990132;28;20739;-66
2021/09/14 08:35:26;;;;;;;6.78;2.65;;;18.90;99.90;;;;;;4990406;28;20457;-66
2021/09/14 08:37:52;;;;;;;4.20;2.58;;;19.10;99.90;;;;;;4989327;28;20045;-66
2021/09/14 08:40:17;;;;;;;6.47;3.00;;;19.20;99.90;;;;;;4990116;28;20030;-66
2021/09/14 08:42:43;;;;;;;8.52;2.60;;;19.10;99.90;;;;;;4993671;28;20064;-66
2021/09/14 08:45:08;;;;;;;8.93;2.80;;;19.20;99.90;;;;;;4995768;28;20034;-66
2021/09/14 08:47:34;;;;;;;8.07;2.63;;;19.30;99.90;;;;;;4991152;28;20493;-67
2021/09/14 08:49:59;;;;;;;5.90;2.85;;;19.60;99.90;;;;;;4987885;28;20076;-66
2021/09/14 08:52:25;;;;;;;12.63;3.78;;;19.80;99.90;;;;;;4995217;28;20045;-66
2021/09/14 08:54:50;;;;;;;13.95;7.50;;;19.70;99.90;;;;;;4997266;28;20037;-66
2021/09/14 08:57:16;;;;;;;9.63;3.60;;;19.90;99.90;;;;;;4991478;28;20454;-66
2021/09/14 08:59:41;;;;;;;8.25;2.78;;;20.20;99.90;;;;;;4995046;28;20038;-66
2021/09/14 09:02:07;;;;;;;8.00;2.92;;;20.20;99.90;;;;;;4999815;28;20760;-66
2021/09/14 09:04:32;;;;;;;9.82;3.97;;;20.10;99.90;;;;;;4995129;28;20034;-66
2021/09/14 09:06:58;;;;;;;6.85;2.95;;;20.30;99.90;;;;;;4994377;28;20038;-67
2021/09/14 09:09:25;;;;;;;6.35;2.50;;;20.10;99.90;;;;;;4991270;28;20042;-66
2021/09/14 09:11:51;;;;;;;11.15;3.00;;;20.40;99.90;;;;;;4990828;28;20760;-66
2021/09/14 09:14:16;;;;;;;9.32;3.00;;;20.40;99.90;;;;;;4993265;28;20042;-66
2021/09/14 09:16:43;;;;;;;5.28;2.70;;;20.70;99.90;;;;;;4996768;28;20026;-66
2021/09/14 09:19:08;;;;;;;9.77;3.20;;;20.70;99.90;;;;;;4989420;28;20708;-66
2021/09/14 09:21:34;;;;;;;7.07;2.63;;;20.80;99.90;;;;;;4995099;28;20030;-66
2021/09/14 09:24:00;;;;;;;4.90;2.65;;;20.60;99.90;;;;;;4994109;28;20112;-67
2021/09/14 09:26:25;;;;;;;3.70;2.20;;;20.60;99.90;;;;;;4993175;28;20034;-66
2021/09/14 09:28:51;;;;;;;8.98;2.83;;;20.70;99.90;;;;;;4987128;28;20049;-66
2021/09/14 09:31:16;;;;;;;6.60;2.60;;;20.90;99.90;;;;;;4992718;28;20029;-67
2021/09/14 09:33:42;;;;;;;9.77;2.88;;;20.90;99.90;;;;;;5001008;28;20034;-65
2021/09/14 09:36:07;;;;;;;10.73;3.70;;;20.90;99.90;;;;;;4995536;28;20033;-66
2021/09/14 09:38:33;;;;;;;10.57;2.67;;;21.00;99.90;;;;;;4995114;28;20076;-66
2021/09/14 09:40:58;;;;;;;11.82;6.85;;;20.80;99.90;;;;;;4992011;28;20674;-66
2021/09/14 09:43:24;;;;;;;10.07;4.82;;;20.80;99.90;;;;;;4992238;28;20124;-64
2021/09/14 09:45:49;;;;;;;8.65;2.95;;;20.90;99.90;;;;;;4992218;28;20042;-65
2021/09/14 09:48:15;;;;;;;14.00;3.00;;;21.10;99.90;;;;;;4993693;28;20045;-66
2021/09/14 09:50:40;;;;;;;4.40;2.28;;;19.40;99.90;;;;;;4991475;28;20038;-67
2021/09/14 09:53:06;;;;;;;16.52;2.60;;;21.10;99.90;;;;;;4987219;28;20030;-69
2021/09/14 09:55:32;;;;;;;8.35;2.50;;;21.10;99.90;;;;;;4991574;28;20490;-70
2021/09/14 09:57:58;;;;;;;6.28;2.47;;;21.50;99.90;;;;;;4992487;28;20034;-70
2021/09/14 10:00:24;;;;;;;8.43;2.47;;;21.70;99.90;;;;;;5000200;28;20040;-70
2021/09/14 10:02:49;;;;;;;17.33;8.45;;;21.90;99.90;;;;;;4995139;28;20049;-71
2021/09/14 10:05:15;;;;;;;7.93;2.78;;;21.80;99.90;;;;;;4986947;28;20066;-70
2021/09/14 10:07:40;;;;;;;6.50;3.00;;;21.80;99.90;;;;;;4988474;28;20034;-69
2021/09/14 10:10:06;;;;;;;9.95;3.45;;;21.70;99.90;;;;;;4991289;28;20030;-71
2021/09/14 10:12:31;;;;;;;9.02;4.95;;;21.80;99.90;;;;;;4991715;28;20623;-72
2021/09/14 10:14:57;;;;;;;8.02;5.00;;;21.80;99.90;;;;;;4992939;28;20045;-71
2021/09/14 10:17:23;;;;;;;7.57;5.13;;;21.70;99.90;;;;;;4991168;28;20079;-71
2021/09/14 10:19:48;;;;;;;5.50;2.83;;;21.90;99.90;;;;;;4987053;28;20036;-74
2021/09/14 10:22:13;;;;;;;4.05;2.17;;;21.80;99.90;;;;;;4994179;28;20079;-74
2021/09/14 10:24:39;;;;;;;8.23;2.55;;;22.10;99.90;;;;;;4993471;28;20046;-74
2021/09/14 10:27:04;;;;;;;5.43;2.30;;;22.00;99.90;;;;;;4996496;28;20045;-75
2021/09/14 10:29:30;;;;;;;6.30;2.65;;;21.80;99.90;;;;;;4994685;28;20034;-75
2021/09/14 10:31:55;;;;;;;16.95;9.23;;;21.50;99.90;;;;;;4995040;28;20034;-75
2021/09/14 10:34:21;;;;;;;7.05;4.25;;;21.80;99.90;;;;;;4993946;28;20038;-73
2021/09/14 10:36:46;;;;;;;14.07;4.55;;;21.60;99.90;;;;;;4997093;28;20037;-74
2021/09/14 10:39:12;;;;;;;8.85;3.78;;;21.40;99.90;;;;;;4992180;28;20894;-64
2021/09/14 10:41:37;;;;;;;5.05;2.55;;;21.20;99.90;;;;;;4993906;28;20034;-65
2021/09/14 10:44:07;;;;;;;7.70;2.60;;;21.40;99.90;;;;;;4989296;28;20093;-65
2021/09/14 10:46:33;;;;;;;6.97;2.42;;;21.70;99.90;;;;;;4989402;28;20882;-65
2021/09/14 10:48:58;;;;;;;4.80;2.30;;;21.60;99.90;;;;;;4991156;28;20037;-66
2021/09/14 10:51:24;;;;;;;6.43;2.28;;;22.00;99.90;;;;;;4990227;28;20125;-64
2021/09/14 10:53:49;;;;;;;5.30;2.70;;;22.40;99.90;;;;;;4989372;28;20068;-65
2021/09/14 10:56:15;;;;;;;4.90;2.28;;;22.30;98.80;;;;;;4990730;28;20509;-64
2021/09/14 10:58:41;;;;;;;6.40;2.80;;;22.40;99.60;;;;;;4989022;28;20030;-64
2021/09/14 11:01:06;;;;;;;5.13;2.40;;;22.30;99.90;;;;;;4999524;28;20042;-64
2021/09/14 11:03:32;;;;;;;5.70;2.20;;;22.30;99.90;;;;;;4987510;28;20038;-64
2021/09/14 11:05:57;;;;;;;5.53;2.30;;;22.70;99.90;;;;;;4996120;28;20064;-64
2021/09/14 11:08:23;;;;;;;4.80;2.85;;;23.00;98.70;;;;;;4989700;28;20393;-64
2021/09/14 11:10:48;;;;;;;7.35;2.70;;;23.10;99.30;;;;;;4970898;28;20034;-64
2021/09/14 11:13:14;;;;;;;5.40;2.47;;;23.10;99.10;;;;;;4992289;28;20027;-64
2021/09/14 11:15:39;;;;;;;7.38;3.00;;;22.80;99.00;;;;;;4991035;28;21100;-64
2021/09/14 11:18:05;;;;;;;8.93;2.50;;;22.90;98.30;;;;;;4996325;28;20026;-65
2021/09/14 11:20:30;;;;;;;8.02;3.00;;;22.90;99.00;;;;;;4987189;28;20818;-67
2021/09/14 11:22:56;;;;;;;5.97;2.40;;;22.70;98.50;;;;;;4990187;28;20485;-67
2021/09/14 11:25:21;;;;;;;4.78;2.22;;;22.80;99.30;;;;;;4994248;28;20026;-66
2021/09/14 11:27:47;;;;;;;3.97;2.33;;;22.60;98.90;;;;;;4991612;28;20788;-67
2021/09/14 11:30:12;;;;;;;5.32;2.28;;;22.80;99.70;;;;;;4992623;28;20108;-67
2021/09/14 11:32:38;;;;;;;8.15;2.55;;;23.20;98.80;;;;;;4992305;28;20041;-66
2021/09/14 11:35:04;;;;;;;3.47;2.15;;;23.10;98.50;;;;;;4989372;28;20077;-66
2021/09/14 11:37:29;;;;;;;5.88;2.30;;;23.30;98.10;;;;;;4996192;28;20121;-72
2021/09/14 11:39:55;;;;;;;8.13;2.30;;;23.30;96.10;;;;;;4991772;28;20748;-71
2021/09/14 11:42:20;;;;;;;6.63;4.03;;;23.20;96.50;;;;;;4992615;28;20053;-71
2021/09/14 11:44:46;;;;;;;9.20;4.00;;;23.00;97.70;;;;;;4993465;28;20034;-71
2021/09/14 11:47:11;;;;;;;8.02;4.82;;;22.90;98.20;;;;;;4989104;28;20046;-72
2021/09/14 11:49:37;;;;;;;12.93;7.03;;;23.30;98.60;;;;;;4991602;28;20088;-72
2021/09/14 11:52:02;;;;;;;7.18;2.70;;;24.00;96.90;;;;;;4992746;28;20041;-71
2021/09/14 11:54:29;;;;;;;5.28;2.40;;;24.30;96.60;;;;;;4989363;28;20450;-72
2021/09/14 11:56:55;;;;;;;4.50;2.00;;;24.10;96.40;;;;;;4994977;28;20129;-72
2021/09/14 11:59:20;;;;;;;3.03;2.13;;;24.20;96.70;;;;;;4990908;28;20121;-73
2021/09/14 12:01:46;;;;;;;3.80;1.92;;;24.20;95.70;;;;;;4988596;28;20060;-69
2021/09/14 12:04:11;;;;;;;3.92;1.88;;;24.50;95.30;;;;;;4988960;28;20073;-73
2021/09/14 12:06:36;;;;;;;5.20;2.20;;;24.70;95.60;;;;;;4989110;28;20038;-73
2021/09/14 12:09:02;;;;;;;4.68;1.90;;;25.20;94.70;;;;;;4991712;28;20106;-74
2021/09/14 12:11:27;;;;;;;6.78;2.33;;;24.80;94.40;;;;;;4991017;28;20302;-74
2021/09/14 12:13:53;;;;;;;6.95;2.38;;;24.40;94.70;;;;;;4989722;28;20509;-73
2021/09/14 12:16:25;;;;;;;4.63;2.10;;;24.10;95.20;;;;;;4995750;28;20026;-73
2021/09/14 12:18:50;;;;;;;4.88;2.92;;;24.10;96.30;;;;;;4996525;28;20430;-75
2021/09/14 12:21:16;;;;;;;5.63;2.65;;;24.30;95.10;;;;;;4996805;28;20025;-74
2021/09/14 12:23:41;;;;;;;6.60;2.28;;;24.20;95.60;;;;;;4991412;28;20729;-74
2021/09/14 12:26:07;;;;;;;10.18;2.58;;;24.60;95.40;;;;;;4992481;28;20038;-72
2021/09/14 12:28:32;;;;;;;6.57;2.83;;;24.20;95.50;;;;;;4992797;28;20052;-72
2021/09/14 12:30:58;;;;;;;9.43;2.78;;;24.20;95.10;;;;;;4990255;28;20056;-74
2021/09/14 12:33:23;;;;;;;4.38;2.63;;;24.10;95.10;;;;;;4986936;28;20037;-72
2021/09/14 12:35:49;;;;;;;5.53;2.75;;;23.80;95.70;;;;;;4988363;28;20035;-75
2021/09/14 12:38:14;;;;;;;6.57;2.78;;;23.80;95.70;;;;;;4986787;28;20087;-73
2021/09/14 12:40:40;;;;;;;9.10;5.07;;;23.90;95.50;;;;;;4986263;28;20101;-73
2021/09/14 12:43:05;;;;;;;5.68;3.38;;;23.80;96.70;;;;;;4990496;28;20040;-73
2021/09/14 12:45:31;;;;;;;6.22;3.88;;;23.40;94.60;;;;;;4990287;28;20045;-73
2021/09/14 12:47:56;;;;;;;5.45;3.33;;;23.50;95.40;;;;;;4992057;28;20040;-73
2021/09/14 12:50:22;;;;;;;10.55;6.55;;;23.50;95.40;;;;;;4987413;28;20034;-72
2021/09/14 12:52:47;;;;;;;5.15;2.88;;;23.60;95.40;;;;;;4987016;28;20038;-72
2021/09/14 12:55:13;;;;;;;8.77;4.22;;;23.60;94.60;;;;;;4986566;28;20110;-73
2021/09/14 12:57:38;;;;;;;9.95;3.08;;;23.60;95.60;;;;;;4986104;28;20033;-73
2021/09/14 13:00:04;;;;;;;6.13;2.75;;;23.60;96.60;;;;;;4989099;28;20037;-72
2021/09/14 13:02:29;;;;;;;7.30;3.03;;;23.50;95.40;;;;;;4992702;28;20038;-73
2021/09/14 13:04:55;;;;;;;9.13;4.75;;;23.50;95.50;;;;;;4986273;28;20052;-73
2021/09/14 13:07:20;;;;;;;5.05;2.63;;;23.40;96.20;;;;;;4987037;28;20096;-73
2021/09/14 13:09:46;;;;;;;9.23;3.40;;;23.40;95.80;;;;;;4987891;28;20073;-73
2021/09/14 13:12:18;;;;;;;5.18;2.80;;;23.40;96.30;;;;;;4991841;28;20053;-73
2021/09/14 13:17:27;;;;;;;5.43;2.88;;;23.40;96.00;;;;;;4987884;28;20042;-73
2021/09/14 13:19:53;;;;;;;4.22;2.92;;;23.60;96.00;;;;;;4989120;28;20113;-72
2021/09/14 13:22:18;;;;;;;7.28;3.08;;;23.60;96.50;;;;;;4989881;28;20137;-75
2021/09/14 13:24:44;;;;;;;5.20;2.90;;;24.00;95.90;;;;;;4987439;28;20165;-75
2021/09/14 13:27:09;;;;;;;7.07;2.70;;;23.60;95.90;;;;;;4988896;28;20068;-73
2021/09/14 13:29:35;;;;;;;7.85;3.10;;;23.70;96.20;;;;;;4990739;28;20079;-72
2021/09/14 13:32:00;;;;;;;3.83;2.65;;;23.70;96.50;;;;;;4987477;28;20057;-72
2021/09/14 13:34:26;;;;;;;7.57;3.13;;;23.60;95.80;;;;;;4988581;28;20481;-72
2021/09/14 13:36:51;;;;;;;4.65;2.95;;;23.80;95.10;;;;;;4984703;28;20035;-72
2021/09/14 13:39:17;;;;;;;5.05;2.83;;;23.90;95.40;;;;;;4986341;28;20057;-73